• Join FlightAware (Why Join?)
  • Login
  • US Flag 
04:12PM EDT


 

Airport Tracker/Info


-or-


 

Live Flight TrackerFlight Track Log ✈ N45NS ✈ 31-Oct-2013 ✈ KSGJ - KBJJ

Flight Track Log - Related Links

Times and Time Zones

All times are in EDT time to prevent confusion due to time zone crossing. See the N45NS flight status page for this flight to view local times or setup timezone preferences in your user account.

Time Position Orientation Groundspeed Altitude Reporting Facility
EDT Latitude Longitude Course Direction KTS MPH feet Rate Location/Type
02:59PM 29.9850 -81.2906 42° Northeast 264 304 2,600  Level Jacksonville Center
03:00PM 30.0533 -81.2417 32° Northeast 281 323 6,100 3,120 Climbing Jacksonville Center
03:01PM 30.1258 -81.1969 28° Northeast 295 339 8,900 2,940 Climbing Jacksonville Center
03:01PM 30.1278 -81.1947 45° Northeast 299 344 9,100 2,280 Climbing Jacksonville Center
03:02PM 30.2078 -81.2342 337° Northwest 321 369 11,200 2,340 Climbing Jacksonville Center
03:02PM 30.2078 -81.2342 337° Northwest 306 352 11,500 2,460 Climbing Jacksonville Center
03:03PM 30.2731 -81.2836 327° Northwest 303 349 13,700 1,860 Climbing Jacksonville Center
03:04PM 30.3469 -81.3400 327° Northwest 321 369 15,200 1,800 Climbing Jacksonville Center
03:05PM 30.4247 -81.3989 327° Northwest 321 369 17,400 1,380 Climbing Jacksonville Center
03:06PM 30.5047 -81.4556 329° Northwest 326 375 18,000 300 Climbing Jacksonville Center
03:07PM 30.5847 -81.5172 326° Northwest 357 411 18,000 780 Level Jacksonville Center
03:08PM 30.6731 -81.5811 328° Northwest 375 432 19,600 1,860 Climbing Jacksonville Center
03:09PM 30.7714 -81.5894 356° North 361 415 21,800 1,860 Climbing Jacksonville Center
03:10PM 30.8694 -81.5928 358° North 343 395 23,400 1,200 Climbing Jacksonville Center
03:11PM 30.9739 -81.5939 359° North 355 409 24,200 960 Climbing Jacksonville Center
03:12PM 31.0825 -81.5972 358° North 369 425 25,400 1,200 Climbing Jacksonville Center
03:13PM 31.1933 -81.6031 357° North 388 447 26,600 1,320 Climbing Jacksonville Center
03:14PM 31.2997 -81.6064 358° North 388 447 28,100 1,560 Climbing Jacksonville Center
03:15PM 31.4147 -81.6072 360° North 375 432 29,800 1,620 Climbing Jacksonville Center
03:16PM 31.5169 -81.6108 358° North 363 418 31,400 1,560 Climbing Jacksonville Center
03:17PM 31.6108 -81.6119 359° North 364 419 33,000 1,680 Climbing Jacksonville Center
03:18PM 31.7175 -81.6178 357° North 349 402 34,800 1,500 Climbing Jacksonville Center
03:19PM 31.8053 -81.6189 359° North 343 395 36,100 1,560 Climbing Jacksonville Center
03:20PM 31.9075 -81.6225 358° North 343 395 38,000 1,560 Climbing Jacksonville Center
03:21PM 31.9994 -81.6261 358° North 336 387 39,300 1,260 Climbing Jacksonville Center
03:22PM 32.0808 -81.6275 359° North 326 375 40,600 840 Climbing Jacksonville Center
03:23PM 32.1833 -81.6308 358° North 327 376 41,000 180 Climbing Jacksonville Center
03:24PM 32.2814 -81.6319 359° North 341 392 41,000  Level Jacksonville Center
03:25PM 32.3753 -81.6331 359° North 366 421 41,000  Level Jacksonville Center
03:26PM 32.4944 -81.6389 358° North 377 434 41,000  Level Jacksonville Center
03:27PM 32.6008 -81.6400 359° North 387 445 41,000  Level Jacksonville Center
03:28PM 32.7094 -81.6433 359° North 382 440 41,000  Level Jacksonville Center
03:29PM 32.8181 -81.6467 359° North 382 440 41,000  Level Jacksonville Center
03:30PM 32.9267 -81.6478 360° North 388 447 41,000  Level Jacksonville Center
03:31PM 33.0331 -81.6536 357° North 382 440 41,000  Level Jacksonville Center
03:32PM 33.1269 -81.6547 359° North 382 440 41,000  Level Jacksonville Center
03:33PM 33.2461 -81.6533 North 388 447 41,000  Level Jacksonville Center
03:34PM 33.3503 -81.6567 358° North 381 438 41,000  Level Jacksonville Center
03:36PM 33.5481 -81.6633 358° North 390 449 41,000  Level Atlanta Center
03:37PM 33.6564 -81.6653 359° North 383 441 41,000  Level Atlanta Center
03:38PM 33.7608 -81.6675 359° North 383 441 41,000  Level Atlanta Center
03:39PM 33.8592 -81.6722 358° North 383 441 41,000  Level Atlanta Center
03:40PM 33.9636 -81.6744 359° North 383 441 41,000  Level Atlanta Center
03:41PM 34.0742 -81.6764 359° North 388 447 41,000  Level Atlanta Center
03:42PM 34.1850 -81.6833 357° North 388 447 41,000  Level Atlanta Center
03:43PM 34.2914 -81.6853 359° North 388 447 41,000  Level Atlanta Center
03:44PM 34.4000 -81.6850 360° North 388 447 41,000  Level Atlanta Center
03:45PM 34.5106 -81.6919 357° North 388 447 41,000  Level Atlanta Center
03:46PM 34.6192 -81.6939 359° North 388 447 41,100  Climbing Atlanta Center
03:47PM 34.7278 -81.6958 359° North 388 447 41,000 -60 Descending Atlanta Center
03:48PM 34.8383 -81.6978 359° North 388 447 41,000  Level Atlanta Center
03:49PM 34.9469 -81.7050 357° North 388 447 41,000  Level Atlanta Center
03:50PM 35.0578 -81.7069 359° North 388 447 41,000  Level Atlanta Center
03:51PM 35.1664 -81.7114 358° North 388 447 41,000  Level Atlanta Center
03:52PM 35.2894 -81.7156 358° North 388 447 41,000  Level Atlanta Center
03:53PM 35.3981 -81.7178 359° North 388 447 41,000  Level Atlanta Center
03:54PM 35.5086 -81.7197 359° North 388 447 41,000  Level Atlanta Center
03:55PM 35.6192 -81.7217 359° North 388 447 41,000  Level Atlanta Center
03:56PM 35.7297 -81.7236 359° North 388 447 41,000  Level Atlanta Center
03:57PM 35.8406 -81.7281 358° North 393 452 41,000  Level Atlanta Center
03:58PM 35.9511 -81.7328 358° North 393 452 41,000  Level Atlanta Center
03:59PM 36.0639 -81.7347 359° North 393 452 41,000  Level Atlanta Center
04:00PM 36.1744 -81.7392 358° North 398 458 41,000  Level Atlanta Center
04:01PM 36.2869 -81.7411 359° North 403 464 41,000  Level Atlanta Center
04:02PM 36.3978 -81.7458 358° North 403 464 41,000  Level Atlanta Center
04:03PM 36.5103 -81.7478 359° North 403 464 41,000  Level Atlanta Center
04:05PM 36.7772 -81.7567 358° North 407 468 41,000  Level Indianapolis Center
04:07PM 36.8894 -81.7597 359° North 406 467 41,000  Level Indianapolis Center
04:08PM 37.0022 -81.7633 359° North 406 467 41,000  Level Indianapolis Center
04:09PM 37.1342 -81.7672 359° North 406 467 41,000  Level Indianapolis Center
04:10PM 37.2472 -81.7708 359° North 406 467 41,000 -240 Level Indianapolis Center
04:11PM 37.3603 -81.7756 358° North 406 467 40,600 -960 Descending Indianapolis Center
04:12PM 37.4742 -81.7786 359° North 408 470 39,100 -1,260 Descending Indianapolis Center
04:13PM 37.5861 -81.7825 358° North 403 464 38,000 -540 Descending Indianapolis Center
04:14PM 37.7211 -81.7864 359° North 412 474 38,000  Level Indianapolis Center
04:15PM 37.8378 -81.7900 359° North 418 481 38,000  Level Indianapolis Center
04:16PM 37.9431 -81.7936 358° North 426 490 38,000 -840 Level Indianapolis Center
04:17PM 38.0886 -81.7983 359° North 433 498 36,300 -1,020 Descending Indianapolis Center
04:18PM 38.2086 -81.8008 359° North 431 496 35,900 -960 Descending Indianapolis Center
04:19PM 38.3339 -81.8056 358° North 442 509 34,400 -1,500 Descending Indianapolis Center
04:20PM 38.4578 -81.8103 358° North 443 510 32,800 -1,500 Descending Indianapolis Center
04:21PM 38.5803 -81.8136 359° North 435 501 31,300 -1,380 Descending Indianapolis Center
04:22PM 38.7036 -81.8178 358° North 435 501 30,000 -660 Descending Indianapolis Center
04:23PM 38.8289 -81.8206 359° North 441 507 30,000 -60 Level Indianapolis Center
04:24PM 38.9511 -81.8247 358° North 435 501 29,900 -840 Descending Indianapolis Center
04:25PM 39.0783 -81.8297 358° North 451 519 28,300 -1,740 Descending Indianapolis Center
04:26PM 39.2372 -81.8331 359° North 472 543 26,400 -1,620 Descending Indianapolis Center
04:27PM 39.3644 -81.8386 358° North 458 527 25,000 -720 Descending Indianapolis Center
04:28PM 39.4869 -81.8428 358° North 441 507 25,000 -60 Level Indianapolis Center
04:29PM 39.6061 -81.8472 358° North 430 495 24,900 -960 Descending Indianapolis Center
04:30PM 39.7344 -81.8503 359° North 434 499 23,100 -1,860 Descending Indianapolis Center
04:31PM 39.8494 -81.8539 359° North 417 480 21,100 -1,920 Descending Indianapolis Center
04:32PM 39.9650 -81.8572 359° North 417 480 19,200 -2,040 Descending Indianapolis Center
04:33PM 40.0786 -81.8617 358° North 410 472 17,000 -2,280 Descending Indianapolis Center
04:34PM 40.2164 -81.8664 359° North 414 476 14,600 -2,160 Descending Indianapolis Center
04:35PM 40.3286 -81.8697 359° North 400 460 12,600 -1,980 Descending Indianapolis Center
04:36PM 40.4289 -81.8733 358° North 358 412 10,600 -1,920 Descending Indianapolis Center
04:38PM 40.5161 -81.8753 359° North 318 366 8,700 -2,040 Descending Indianapolis Center
04:39PM 40.6003 -81.8783 358° North 304 350 6,400 -2,400 Descending Indianapolis Center
04:39PM 40.6722 -81.8811 358° North 304 350 4,100 -1,740 Descending Cleveland Center
04:40PM 40.7719 -81.8839 359° North 305 351 3,100 -540 Descending Cleveland Center
04:42PM 40.8525 -81.8894 357° North 294 338 3,100  Level Cleveland Center
04:43PM 40.9025 -81.8142 49° Northeast 280 322 3,100  Level Cleveland Center
04:44PM 40.9339 -81.7256 65° Northeast 277 319 3,100 -60 Level Cleveland Center
04:45PM 40.9164 -81.6511 107° East 246 283 3,000 -60 Descending Cleveland Center
04:46PM 40.8867 -81.6950 228° Southwest 202 232 3,000 -60 Level Cleveland Center
04:47PM 40.8750 -81.7556 256° West 185 213 2,900 -480 Descending Cleveland Center
04:48PM 40.8747 -81.8228 270° West 167 192 2,100 -540 Descending Cleveland Center
04:49PM 40.8722 -81.8561 264° West 148 170 1,900 -240 Descending Cleveland Center